Time;durP1;ratioP1;P1;durP2;ratioP2;P2;SDS_P1;SDS_P2;PMS_P1;PMS_P2;Temp;Humidity;BMP_temperature;BMP_pressure;BME280_temperature;BME280_humidity;BME280_pressure;Samples;Min_cycle;Max_cycle;Signal;HPM_P1;HPM_P2
2022/04/15 00:01:49;;;;;;;27.15;20.13;;;;;;;10.62;73.25;102228.34;3585085;39;20064;-63
2022/04/15 00:04:15;;;;;;;26.58;19.50;;;;;;;10.57;72.88;102224.13;3578026;39;20059;-63
2022/04/15 00:06:41;;;;;;;27.90;20.45;;;;;;;10.54;72.89;102235.00;3583676;39;20055;-63
2022/04/15 00:09:07;;;;;;;27.58;21.42;;;;;;;10.49;73.36;102237.84;3577571;39;20059;-63
2022/04/15 00:11:33;;;;;;;28.65;20.75;;;;;;;10.45;73.40;102225.47;3577366;39;20052;-63
2022/04/15 00:14:00;;;;;;;28.55;21.27;;;;;;;10.14;74.32;102180.91;3575871;39;21512;-63
2022/04/15 00:16:26;;;;;;;28.60;21.40;;;;;;;10.36;73.77;102226.69;3584825;39;20059;-63
2022/04/15 00:18:51;;;;;;;26.85;20.08;;;;;;;10.35;74.41;102224.94;3577843;39;20064;-62
2022/04/15 00:21:17;;;;;;;27.42;19.90;;;;;;;10.33;73.41;102226.81;3584742;39;20044;-63
2022/04/15 00:23:43;;;;;;;31.60;21.23;;;;;;;10.28;73.39;102219.88;3580819;39;20055;-63
2022/04/15 00:26:08;;;;;;;27.60;19.67;;;;;;;10.28;74.09;102230.63;3579562;39;20060;-63
2022/04/15 00:28:34;;;;;;;28.98;21.17;;;;;;;10.24;74.06;102229.81;3577533;39;20140;-63
2022/04/15 00:31:00;;;;;;;30.05;20.65;;;;;;;10.20;73.45;102237.13;3577197;39;20058;-64
2022/04/15 00:33:26;;;;;;;28.75;20.65;;;;;;;10.08;73.57;102220.56;3586778;39;20052;-64
2022/04/15 00:35:52;;;;;;;26.48;19.98;;;;;;;10.15;73.63;102239.13;3574293;39;20067;-64
2022/04/15 00:38:18;;;;;;;26.95;20.23;;;;;;;10.09;73.98;102243.84;3585348;39;20159;-64
2022/04/15 00:40:44;;;;;;;27.13;21.13;;;;;;;10.03;74.01;102253.00;3576574;39;20066;-64
2022/04/15 00:43:09;;;;;;;26.33;20.38;;;;;;;9.96;74.81;102255.03;3575096;39;20184;-64
2022/04/15 00:45:35;;;;;;;28.75;20.67;;;;;;;9.88;74.35;102249.06;3583990;39;20881;-64
2022/04/15 00:48:01;;;;;;;28.48;20.85;;;;;;;9.83;74.82;102248.38;3575746;39;20044;-63
2022/04/15 00:50:34;;;;;;;32.22;20.75;;;;;;;9.81;75.07;102249.34;3584573;39;20062;-64
2022/04/15 00:53:07;;;;;;;26.20;20.75;;;;;;;9.74;74.77;102246.00;3575284;39;20071;-65
2022/04/15 00:55:33;;;;;;;24.35;19.55;;;;;;;9.72;74.82;102245.16;3585400;39;20919;-64
2022/04/15 00:58:03;;;;;;;28.63;20.65;;;;;;;9.72;75.24;102253.22;3579200;39;20068;-64
2022/04/15 01:00:32;;;;;;;28.55;21.27;;;;;;;9.67;74.75;102252.50;3577821;39;20121;-65
2022/04/15 01:03:01;;;;;;;28.88;21.27;;;;;;;9.64;74.67;102253.50;3575619;39;20220;-65
2022/04/15 01:05:28;;;;;;;29.17;20.50;;;;;;;9.54;74.59;102250.22;3584635;39;20059;-65
2022/04/15 01:07:57;;;;;;;26.55;20.20;;;;;;;9.56;75.52;102262.75;3574669;39;20064;-65
2022/04/15 01:10:26;;;;;;;26.08;21.00;;;;;;;9.52;75.66;102260.16;3585088;39;20056;-65
2022/04/15 01:12:57;;;;;;;26.42;20.77;;;;;;;9.49;75.64;102254.91;3580360;39;20089;-65
2022/04/15 01:15:28;;;;;;;30.05;20.42;;;;;;;9.48;74.68;102258.53;3575060;39;20508;-65
2022/04/15 01:17:54;;;;;;;29.63;21.50;;;;;;;9.48;74.76;102258.53;3566746;39;20054;-65
2022/04/15 01:20:21;;;;;;;28.45;21.10;;;;;;;9.47;74.90;102259.44;3575795;39;20140;-65
2022/04/15 01:23:09;;;;;;;27.20;20.77;;;;;;;9.43;75.38;102265.84;3573987;39;20091;-65
2022/04/15 01:25:37;;;;;;;29.27;21.27;;;;;;;9.44;74.69;102269.41;3584596;39;20079;-63
2022/04/15 01:28:04;;;;;;;28.73;21.17;;;;;;;9.40;75.56;102263.28;3583742;39;20051;-63
2022/04/15 01:30:30;;;;;;;28.30;21.48;;;;;;;9.36;74.92;102267.00;3576153;39;20036;-65
2022/04/15 01:32:56;;;;;;;30.40;21.80;;;;;;;9.37;75.12;102267.88;3569882;39;20735;-65
2022/04/15 01:35:22;;;;;;;30.88;22.10;;;;;;;9.35;74.62;102273.28;3584322;39;20430;-63
2022/04/15 01:37:49;;;;;;;29.65;21.73;;;;;;;9.34;74.98;102274.22;3575461;39;20117;-63
2022/04/15 01:40:18;;;;;;;28.25;21.48;;;;;;;9.31;74.41;102271.63;3573586;40;20125;-65
2022/04/15 01:42:46;;;;;;;28.15;22.25;;;;;;;9.13;75.37;102240.91;3581629;39;20079;-65
2022/04/15 01:45:12;;;;;;;33.83;22.70;;;;;;;9.22;75.83;102266.56;3576701;39;20059;-63
2022/04/15 01:47:38;;;;;;;31.67;24.10;;;;;;;9.20;75.82;102269.31;3584053;39;20050;-63
2022/04/15 01:50:07;;;;;;;27.65;23.33;;;;;;;9.14;75.94;102280.25;3566403;40;20060;-63
2022/04/15 01:52:33;;;;;;;31.58;23.60;;;;;;;9.09;76.33;102275.94;3586369;39;20096;-63
2022/04/15 01:54:59;;;;;;;31.67;22.95;;;;;;;8.95;76.72;102269.22;3570290;39;20063;-64
2022/04/15 01:57:25;;;;;;;32.17;23.70;;;;;;;8.56;76.60;102213.25;3584492;39;20228;-63
2022/04/15 01:59:51;;;;;;;31.25;21.83;;;;;;;8.97;76.67;102283.44;3583160;39;20401;-66
2022/04/15 02:02:17;;;;;;;28.55;22.67;;;;;;;8.97;75.63;102277.22;3574916;39;20425;-66
2022/04/15 02:04:43;;;;;;;30.38;23.10;;;;;;;8.96;76.01;102287.06;3574473;39;20048;-63
2022/04/15 02:07:08;;;;;;;28.73;21.90;;;;;;;8.95;75.25;102279.97;3580919;39;20060;-63
2022/04/15 02:09:34;;;;;;;27.42;21.17;;;;;;;8.95;75.35;102287.13;3577452;39;20055;-63
2022/04/15 02:12:00;;;;;;;29.98;21.95;;;;;;;8.92;75.41;102285.41;3580115;39;20060;-64
2022/04/15 02:14:26;;;;;;;31.02;22.13;;;;;;;8.90;75.14;102286.38;3586619;39;20054;-63
2022/04/15 02:16:53;;;;;;;28.48;21.88;;;;;;;8.89;75.42;102293.56;3575303;39;20064;-64
2022/04/15 02:19:20;;;;;;;27.02;20.90;;;;;;;8.80;74.74;102280.44;3584205;39;20475;-64
2022/04/15 02:21:47;;;;;;;31.15;22.35;;;;;;;8.75;75.33;102274.31;3567577;39;20466;-65
2022/04/15 02:24:14;;;;;;;29.15;22.58;;;;;;;8.86;75.54;102300.81;3584474;39;20055;-64
2022/04/15 02:26:40;;;;;;;30.08;23.17;;;;;;;8.79;75.68;102303.69;3576934;39;20162;-65
2022/04/15 02:29:05;;;;;;;31.27;23.92;;;;;;;8.78;76.00;102306.41;3584367;39;20135;-64
2022/04/15 02:31:31;;;;;;;31.10;22.77;;;;;;;8.76;76.66;102301.09;3584268;39;20523;-64
2022/04/15 02:33:56;;;;;;;33.08;23.95;;;;;;;8.56;76.71;102269.56;3573591;39;20055;-65
2022/04/15 02:36:22;;;;;;;32.60;22.92;;;;;;;8.73;76.89;102300.31;3579010;39;20048;-64
2022/04/15 02:38:47;;;;;;;35.85;24.98;;;;;;;8.68;76.84;102307.59;3575549;39;20063;-64
2022/04/15 02:41:13;;;;;;;33.05;23.80;;;;;;;8.63;76.73;102307.75;3574973;39;21125;-64
2022/04/15 02:43:40;;;;;;;35.78;24.02;;;;;;;8.59;77.30;102304.31;3582710;39;20060;-65
2022/04/15 02:46:10;;;;;;;32.88;24.27;;;;;;;8.53;76.89;102290.19;3583875;39;20141;-64
2022/04/15 02:48:36;;;;;;;32.75;23.73;;;;;;;8.55;77.24;102299.06;3574668;39;20048;-63
2022/04/15 02:51:03;;;;;;;35.53;24.33;;;;;;;8.58;77.06;102294.47;3575657;39;20141;-64
2022/04/15 02:53:30;;;;;;;36.33;25.45;;;;;;;8.51;77.25;102292.91;3576802;39;20060;-64
2022/04/15 02:55:57;;;;;;;36.75;25.45;;;;;;;8.62;78.14;102313.16;3579947;39;20336;-64
2022/04/15 02:58:23;;;;;;;36.15;25.73;;;;;;;8.60;77.41;102308.72;3576691;39;20368;-63
2022/04/15 03:00:50;;;;;;;35.13;24.42;;;;;;;8.56;77.58;102300.81;3582878;39;20107;-64
2022/04/15 03:03:16;;;;;;;36.10;25.58;;;;;;;8.62;77.16;102313.16;3576569;39;20103;-65
2022/04/15 03:05:41;;;;;;;34.67;24.77;;;;;;;8.57;77.26;102311.50;3581119;39;20109;-63
2022/04/15 03:08:08;;;;;;;31.52;24.15;;;;;;;8.60;76.54;102308.72;3570960;39;20495;-64
2022/04/15 03:10:35;;;;;;;35.10;24.50;;;;;;;8.59;76.86;102303.41;3584409;39;20059;-64
2022/04/15 03:13:02;;;;;;;32.67;24.42;;;;;;;8.63;76.74;102307.75;3571084;39;20122;-64
2022/04/15 03:15:28;;;;;;;35.85;26.05;;;;;;;8.60;77.18;102302.50;3583290;39;20060;-63
2022/04/15 03:17:53;;;;;;;33.00;24.77;;;;;;;8.57;77.55;102308.81;3579916;39;20270;-64
2022/04/15 03:20:21;;;;;;;36.28;25.42;;;;;;;8.40;77.75;102278.06;3573618;39;20047;-64
2022/04/15 03:22:46;;;;;;;38.45;24.65;;;;;;;8.55;76.66;102299.06;3573657;39;20366;-64
2022/04/15 03:25:19;;;;;;;37.05;25.25;;;;;;;8.53;76.67;102307.16;3580501;39;20086;-64
2022/04/15 03:27:46;;;;;;;35.58;24.15;;;;;;;8.50;76.60;102315.28;3576942;39;20397;-64
2022/04/15 03:30:14;;;;;;;33.30;24.50;;;;;;;8.49;77.19;102312.63;3577532;39;20144;-63
2022/04/15 03:32:51;;;;;;;34.40;24.67;;;;;;;8.46;76.99;102318.09;3571002;40;20117;-64
2022/04/15 03:35:20;;;;;;;34.40;24.85;;;;;;;8.44;76.60;102312.78;3564505;39;20068;-61
2022/04/15 03:37:50;;;;;;;34.72;24.95;;;;;;;8.18;77.03;102273.28;3610069;22;20079;-67
2022/04/15 03:40:17;;;;;;;35.72;25.00;;;;;;;8.35;76.88;102315.69;3581826;40;20062;-67
2022/04/15 03:42:49;;;;;;;34.55;24.52;;;;;;;8.29;77.45;102311.38;3575278;40;20051;-66
2022/04/15 03:45:19;;;;;;;31.40;22.80;;;;;;;8.33;76.54;102322.88;3572133;40;20058;-67
2022/04/15 03:47:49;;;;;;;31.73;23.02;;;;;;;8.33;76.82;102325.56;3583072;40;20075;-66
2022/04/15 03:50:17;;;;;;;29.95;23.80;;;;;;;8.28;76.51;102315.00;3565810;40;20679;-66
2022/04/15 03:52:48;;;;;;;29.35;22.70;;;;;;;8.08;76.46;102288.75;3575884;40;20064;-67
2022/04/15 03:55:18;;;;;;;29.40;21.83;;;;;;;8.17;75.99;102294.78;3579360;40;20201;-67
2022/04/15 03:57:44;;;;;;;35.72;23.23;;;;;;;8.27;76.78;102317.69;3580602;40;20063;-67
2022/04/15 04:00:14;;;;;;;33.22;22.88;;;;;;;7.89;76.42;102250.00;3572844;39;20059;-67
2022/04/15 04:02:44;;;;;;;36.47;24.77;;;;;;;8.42;77.57;102335.19;3581262;40;20062;-65
2022/04/15 04:05:10;;;;;;;37.40;27.52;;;;;;;8.31;79.49;102298.84;3570413;40;20071;-66
2022/04/15 04:07:37;;;;;;;42.90;29.30;;;;;;;8.55;80.25;102336.59;3567245;40;20080;-66
2022/04/15 04:10:04;;;;;;;48.58;32.72;;;;;;;8.58;81.86;102333.81;3576476;40;20055;-67
2022/04/15 04:12:34;;;;;;;53.53;33.88;;;;;;;8.66;82.27;102341.63;3582272;40;20059;-66
2022/04/15 04:15:06;;;;;;;52.53;35.08;;;;;;;8.68;83.52;102339.78;3574586;39;20068;-66
2022/04/15 04:17:32;;;;;;;74.10;34.80;;;;;;;8.65;83.13;102330.03;3580161;40;20062;-66
2022/04/15 04:19:58;;;;;;;71.63;32.17;;;;;;;8.68;83.64;102337.97;3584233;40;20060;-67
2022/04/15 04:22:33;;;;;;;64.43;32.92;;;;;;;8.55;83.69;102324.06;3570753;40;20064;-67
2022/04/15 04:24:59;;;;;;;68.05;32.47;;;;;;;8.70;84.07;102346.00;3577699;40;20075;-67
2022/04/15 04:27:25;;;;;;;74.55;34.25;;;;;;;8.71;83.97;102345.06;3580497;40;20086;-67
2022/04/15 04:29:51;;;;;;;56.83;33.92;;;;;;;8.74;84.63;102347.66;3584474;40;20055;-66
2022/04/15 04:32:19;;;;;;;48.97;31.70;;;;;;;8.72;83.57;102357.53;3564571;40;20067;-67
2022/04/15 04:34:45;;;;;;;49.53;29.83;;;;;;;8.71;83.83;102355.78;3583468;40;20060;-66
2022/04/15 04:37:11;;;;;;;79.32;29.13;;;;;;;8.63;83.54;102365.81;3574459;40;20075;-66
2022/04/15 04:39:37;;;;;;;71.25;29.20;;;;;;;8.57;84.29;102361.53;3579022;40;20478;-67
2022/04/15 04:42:05;;;;;;;74.88;28.10;;;;;;;7.96;83.85;102265.00;3587907;40;20066;-66
2022/04/15 04:44:32;;;;;;;49.60;29.58;;;;;;;8.35;84.15;102338.00;3591375;40;20055;-66
2022/04/15 04:46:59;;;;;;;60.08;31.17;;;;;;;8.48;85.28;102365.38;3585471;39;20048;-66
2022/04/15 04:49:26;;;;;;;52.55;29.55;;;;;;;8.25;84.62;102330.28;3592048;40;20068;-67
2022/04/15 04:51:52;;;;;;;75.90;27.73;;;;;;;8.43;84.12;102369.97;3583801;39;20052;-66
2022/04/15 04:54:18;;;;;;;68.68;27.73;;;;;;;8.36;84.97;102368.34;3588172;40;20075;-67
2022/04/15 04:56:44;;;;;;;56.53;28.63;;;;;;;8.33;85.33;102369.31;3577161;40;20087;-66
2022/04/15 04:59:09;;;;;;;48.22;29.45;;;;;;;8.27;85.05;102356.06;3582563;40;20055;-66
2022/04/15 05:01:35;;;;;;;49.40;27.98;;;;;;;8.30;85.34;102371.19;3573745;40;20135;-67
2022/04/15 05:04:00;;;;;;;42.33;28.05;;;;;;;8.35;85.44;102385.34;3584989;40;20060;-67
2022/04/15 05:06:26;;;;;;;45.60;26.83;;;;;;;8.37;85.36;102394.22;3582572;40;20057;-67
2022/04/15 05:08:52;;;;;;;40.75;25.08;;;;;;;8.38;85.16;102401.38;3576249;40;20048;-67
2022/04/15 05:11:17;;;;;;;45.05;25.05;;;;;;;8.32;85.50;102390.81;3580394;40;20060;-68
2022/04/15 05:13:43;;;;;;;31.75;22.25;;;;;;;8.34;84.84;102394.28;3585377;40;20094;-68
2022/04/15 05:16:09;;;;;;;30.65;22.83;;;;;;;8.31;84.59;102394.41;3586067;40;20048;-67
2022/04/15 05:18:34;;;;;;;29.45;21.23;;;;;;;8.34;85.02;102402.34;3578719;40;20609;-63
2022/04/15 05:21:01;;;;;;;50.22;21.08;;;;;;;8.37;84.43;102416.56;3585082;40;20051;-64
2022/04/15 05:23:27;;;;;;;25.27;20.63;;;;;;;8.40;84.40;102420.97;3575443;40;20068;-65
2022/04/15 05:25:53;;;;;;;33.75;20.33;;;;;;;8.32;84.89;102407.75;3585826;40;20115;-64
2022/04/15 05:28:18;;;;;;;37.55;22.15;;;;;;;8.41;85.33;102427.22;3575692;40;20063;-64
2022/04/15 05:30:44;;;;;;;33.08;20.65;;;;;;;8.46;85.22;102423.47;3584653;40;20485;-63
2022/04/15 05:33:10;;;;;;;28.88;21.05;;;;;;;8.45;85.26;102424.41;3578926;39;20107;-63
2022/04/15 05:35:36;;;;;;;34.33;22.63;;;;;;;8.46;85.22;102420.78;3580248;40;20055;-64
2022/04/15 05:38:02;;;;;;;45.58;24.85;;;;;;;7.96;84.55;102339.09;3586698;40;20062;-64
2022/04/15 05:40:28;;;;;;;45.70;23.15;;;;;;;8.56;84.68;102442.84;3569951;40;20057;-64
2022/04/15 05:42:54;;;;;;;46.17;24.15;;;;;;;8.51;85.15;102440.31;3579464;40;20055;-64
2022/04/15 05:45:20;;;;;;;33.63;24.38;;;;;;;8.62;84.92;102458.78;3583710;40;20845;-64
2022/04/15 05:47:45;;;;;;;34.53;24.35;;;;;;;8.59;85.29;102449.03;3585534;40;20096;-64
2022/04/15 05:50:11;;;;;;;43.40;24.05;;;;;;;8.53;85.20;102445.63;3577516;39;20063;-64
2022/04/15 05:52:37;;;;;;;34.50;24.45;;;;;;;8.55;85.16;102443.78;3582704;40;20067;-64
2022/04/15 05:55:03;;;;;;;36.00;25.60;;;;;;;8.71;85.11;102463.00;3574512;40;20071;-64
2022/04/15 05:57:28;;;;;;;30.48;23.15;;;;;;;8.75;84.97;102470.03;3574996;39;20814;-64
2022/04/15 05:59:54;;;;;;;27.00;19.90;;;;;;;8.70;84.21;102461.25;3583496;40;20048;-64
2022/04/15 06:02:20;;;;;;;28.65;20.13;;;;;;;8.65;84.10;102447.09;3582573;40;20318;-64
2022/04/15 06:04:46;;;;;;;32.38;19.98;;;;;;;8.78;83.36;102473.50;3576856;40;20096;-64
2022/04/15 06:07:11;;;;;;;41.33;20.63;;;;;;;8.77;83.77;102476.25;3583417;40;20055;-64
2022/04/15 06:09:37;;;;;;;36.95;20.90;;;;;;;8.71;84.11;102458.53;3573049;40;20090;-64
2022/04/15 06:12:03;;;;;;;28.80;20.45;;;;;;;8.89;84.28;102489.31;3582977;40;20082;-64
2022/04/15 06:14:33;;;;;;;31.52;21.98;;;;;;;8.77;84.01;102465.53;3575245;40;20639;-64
2022/04/15 06:16:59;;;;;;;33.17;23.20;;;;;;;8.96;84.52;102496.25;3582485;40;20386;-64
2022/04/15 06:19:25;;;;;;;35.67;23.25;;;;;;;8.97;84.11;102484.59;3582469;40;20064;-65
2022/04/15 06:21:51;;;;;;;31.98;22.75;;;;;;;9.04;84.65;102488.88;3576015;40;20067;-64
2022/04/15 06:24:16;;;;;;;36.15;23.20;;;;;;;9.11;83.50;102491.41;3574260;40;20109;-65
2022/04/15 06:26:42;;;;;;;29.48;21.85;;;;;;;9.15;83.26;102495.75;3578359;40;20052;-65
2022/04/15 06:29:07;;;;;;;30.15;22.40;;;;;;;9.18;83.04;102492.97;3570791;40;20060;-64
2022/04/15 06:31:33;;;;;;;29.70;21.85;;;;;;;9.22;83.33;102500.00;3577638;40;20047;-63
2022/04/15 06:33:59;;;;;;;28.27;21.27;;;;;;;9.23;83.38;102504.47;3580716;40;20322;-64
2022/04/15 06:36:25;;;;;;;30.92;20.35;;;;;;;9.15;82.43;102493.94;3577250;40;20043;-64
2022/04/15 06:38:51;;;;;;;30.13;21.85;;;;;;;9.23;82.80;102516.06;3580366;40;20671;-64
2022/04/15 06:41:16;;;;;;;30.00;21.98;;;;;;;9.23;82.52;102512.50;3573490;40;20048;-63
2022/04/15 06:43:42;;;;;;;27.90;21.90;;;;;;;9.26;83.01;102507.94;3582903;40;20121;-64
2022/04/15 06:46:08;;;;;;;28.88;21.88;;;;;;;9.29;82.81;102509.63;3576562;40;20060;-64
2022/04/15 06:48:33;;;;;;;28.02;21.40;;;;;;;9.35;83.41;102509.44;3583302;40;20749;-64
2022/04/15 06:50:59;;;;;;;28.45;21.60;;;;;;;9.32;82.74;102503.28;3581307;40;20054;-64
2022/04/15 06:53:24;;;;;;;28.02;20.83;;;;;;;9.42;82.26;102526.22;3574500;40;20055;-64
2022/04/15 06:55:52;;;;;;;29.83;21.35;;;;;;;9.42;82.52;102532.50;3564893;40;20067;-64
2022/04/15 06:58:18;;;;;;;25.90;20.40;;;;;;;9.32;81.88;102509.53;3579106;40;20156;-65
2022/04/15 07:00:45;;;;;;;26.33;20.52;;;;;;;9.47;82.73;102529.66;3579633;40;20273;-64
2022/04/15 07:03:12;;;;;;;26.55;19.80;;;;;;;9.53;82.01;102533.06;3584542;40;20055;-63
2022/04/15 07:05:39;;;;;;;24.95;19.27;;;;;;;9.49;81.29;102509.03;3586747;40;20177;-64
2022/04/15 07:08:08;;;;;;;25.30;18.60;;;;;;;9.65;82.00;102523.75;3576544;40;20048;-63
2022/04/15 07:10:38;;;;;;;27.27;20.27;;;;;;;9.70;81.33;102524.47;3585889;40;20060;-63
2022/04/15 07:13:05;;;;;;;25.60;18.73;;;;;;;9.75;80.94;102530.59;3573978;40;20056;-63
2022/04/15 07:15:31;;;;;;;29.30;20.27;;;;;;;9.76;80.53;102537.72;3582505;40;20124;-64
2022/04/15 07:17:57;;;;;;;26.08;19.98;;;;;;;9.81;80.89;102536.72;3575146;40;20052;-61
2022/04/15 07:20:23;;;;;;;27.05;20.25;;;;;;;9.74;80.42;102522.59;3577684;40;20060;-64
2022/04/15 07:23:00;;;;;;;28.35;20.33;;;;;;;9.82;80.32;102525.03;3567553;40;20071;-64
2022/04/15 07:25:26;;;;;;;25.05;19.48;;;;;;;9.87;79.83;102545.44;3581144;40;20141;-64
2022/04/15 07:27:53;;;;;;;26.38;19.63;;;;;;;9.89;81.06;102540.88;3570791;40;20103;-64
2022/04/15 07:30:19;;;;;;;28.65;18.15;;;;;;;9.92;80.92;102538.09;3579729;40;20060;-64
2022/04/15 07:32:45;;;;;;;28.35;19.33;;;;;;;10.04;79.52;102541.34;3574083;40;20044;-63
2022/04/15 07:35:11;;;;;;;25.30;18.35;;;;;;;10.02;79.97;102545.88;3578475;40;20056;-65
2022/04/15 07:37:37;;;;;;;26.08;17.90;;;;;;;10.04;79.10;102546.72;3575018;39;20357;-64
2022/04/15 07:40:04;;;;;;;24.25;17.48;;;;;;;10.14;79.11;102558.94;3581132;40;20579;-64
2022/04/15 07:42:30;;;;;;;27.58;19.13;;;;;;;10.07;79.03;102531.38;3572605;40;20080;-64
2022/04/15 07:44:55;;;;;;;27.38;19.50;;;;;;;10.18;79.35;102556.09;3578921;40;20101;-64
2022/04/15 07:47:21;;;;;;;26.73;19.20;;;;;;;10.28;79.40;102545.97;3572903;40;20451;-64
2022/04/15 07:49:47;;;;;;;26.48;18.83;;;;;;;10.31;79.18;102550.38;3581217;40;20040;-64
2022/04/15 07:52:13;;;;;;;26.25;18.15;;;;;;;10.24;78.24;102538.88;3575310;40;20071;-64
2022/04/15 07:54:38;;;;;;;34.17;20.05;;;;;;;10.37;77.96;102559.09;3583320;40;20048;-66
2022/04/15 07:57:04;;;;;;;31.80;19.83;;;;;;;10.32;78.54;102557.50;3574158;40;20048;-64
2022/04/15 07:59:30;;;;;;;28.70;18.40;;;;;;;10.32;78.91;102552.13;3572452;40;20044;-64
2022/04/15 08:01:58;;;;;;;28.70;19.05;;;;;;;10.43;78.15;102558.00;3584925;40;20044;-66
2022/04/15 08:04:25;;;;;;;23.67;18.25;;;;;;;10.34;77.76;102545.75;3561154;40;20059;-65
2022/04/15 08:06:52;;;;;;;26.65;17.95;;;;;;;10.39;77.99;102543.78;3585564;40;20048;-65
2022/04/15 08:09:18;;;;;;;24.48;17.88;;;;;;;10.58;78.02;102562.00;3563429;40;20125;-65
2022/04/15 08:11:43;;;;;;;23.00;18.15;;;;;;;10.40;77.77;102526.75;3585506;40;21614;-65
2022/04/15 08:14:09;;;;;;;25.13;17.48;;;;;;;10.59;77.50;102555.66;3572843;40;20676;-64
2022/04/15 08:16:35;;;;;;;22.95;17.10;;;;;;;10.56;77.38;102551.31;3585539;40;20644;-64
2022/04/15 08:19:00;;;;;;;21.40;16.38;;;;;;;10.65;76.78;102563.53;3579486;40;20256;-64
2022/04/15 08:21:26;;;;;;;19.85;14.90;;;;;;;10.73;76.35;102561.47;3576593;39;20686;-64
2022/04/15 08:23:51;;;;;;;22.27;15.45;;;;;;;10.73;76.11;102552.53;3567092;40;20047;-64
2022/04/15 08:26:17;;;;;;;21.73;14.45;;;;;;;10.88;75.91;102569.00;3585245;40;20062;-64
2022/04/15 08:28:42;;;;;;;19.25;15.40;;;;;;;10.92;75.12;102559.00;3576669;40;20047;-64
2022/04/15 08:31:08;;;;;;;21.27;15.00;;;;;;;10.98;75.19;102568.69;3583493;40;20062;-64
2022/04/15 08:33:37;;;;;;;18.73;13.85;;;;;;;10.99;73.94;102554.28;3577632;40;20471;-65
2022/04/15 08:36:04;;;;;;;20.20;13.98;;;;;;;11.02;74.12;102565.81;3578240;40;20055;-64
2022/04/15 08:38:29;;;;;;;16.88;12.75;;;;;;;11.15;74.18;102568.94;3589908;40;20054;-65
2022/04/15 08:40:58;;;;;;;19.83;12.63;;;;;;;11.22;72.63;102551.63;3575541;39;20055;-64
2022/04/15 08:43:25;;;;;;;17.67;12.05;;;;;;;11.49;71.20;102575.78;3577054;40;20060;-64
2022/04/15 08:45:53;;;;;;;17.40;12.00;;;;;;;11.60;70.08;102585.19;3587433;40;20073;-65
2022/04/15 08:48:18;;;;;;;16.42;11.90;;;;;;;11.56;70.02;102577.31;3575195;40;20060;-64
2022/04/15 08:50:44;;;;;;;14.13;10.32;;;;;;;11.61;68.77;102583.41;3579446;40;20048;-65
2022/04/15 08:53:10;;;;;;;14.48;10.38;;;;;;;11.70;67.90;102585.72;3584012;40;20049;-66
2022/04/15 08:55:37;;;;;;;14.95;10.43;;;;;;;11.80;69.48;102576.38;3566884;40;20716;-64
2022/04/15 08:58:03;;;;;;;12.15;9.70;;;;;;;11.83;66.00;102572.69;3585554;40;20390;-65
2022/04/15 09:00:29;;;;;;;13.88;10.10;;;;;;;12.09;67.32;102587.84;3573976;40;20065;-65
2022/04/15 09:02:56;;;;;;;12.15;9.10;;;;;;;12.32;65.85;102590.47;3584057;40;20062;-65
2022/04/15 09:05:31;;;;;;;11.57;9.05;;;;;;;11.94;65.36;102513.00;3569376;40;21119;-64
2022/04/15 09:08:10;;;;;;;10.52;8.35;;;;;;;12.42;64.00;102574.78;3585861;40;20408;-65
2022/04/15 09:10:40;;;;;;;14.45;8.65;;;;;;;12.65;63.93;102595.41;3587069;40;20059;-64
2022/04/15 09:13:07;;;;;;;12.95;9.13;;;;;;;12.70;63.85;102582.59;3565946;40;20137;-66
2022/04/15 09:15:33;;;;;;;9.82;8.65;;;;;;;12.86;63.26;102595.44;3566342;40;20071;-65
2022/04/15 09:18:00;;;;;;;9.38;7.97;;;;;;;12.90;62.24;102603.34;3586689;40;20054;-65
2022/04/15 09:20:34;;;;;;;8.93;8.02;;;;;;;12.97;62.49;102603.94;3581283;40;20051;-65
2022/04/15 09:23:11;;;;;;;9.90;8.30;;;;;;;12.87;61.68;102565.69;3579634;40;20048;-65
2022/04/15 09:25:39;;;;;;;8.13;7.15;;;;;;;13.15;61.98;102594.16;3584460;40;20052;-65
2022/04/15 09:28:06;;;;;;;12.63;8.27;;;;;;;13.26;61.78;102593.72;3576758;40;20084;-65
2022/04/15 09:30:40;;;;;;;11.70;7.90;;;;;;;12.91;61.23;102504.38;3568896;40;20048;-65
2022/04/15 09:33:10;;;;;;;10.43;8.18;;;;;;;13.45;60.00;102600.06;3582764;40;20515;-67
2022/04/15 09:35:36;;;;;;;9.95;8.82;;;;;;;13.45;60.66;102600.94;3581589;40;20044;-65
2022/04/15 09:38:05;;;;;;;12.23;8.63;;;;;;;13.53;61.13;102599.69;3623348;22;20035;-62
2022/04/15 09:40:37;;;;;;;12.63;8.45;;;;;;;13.94;59.74;102611.28;3592301;39;20110;-62
2022/04/15 09:43:06;;;;;;;8.23;7.40;;;;;;;14.20;58.61;102606.44;3584775;39;20055;-62
2022/04/15 09:45:37;;;;;;;8.55;7.15;;;;;;;14.34;56.92;102609.38;3585202;39;20059;-63
2022/04/15 09:48:08;;;;;;;11.25;8.07;;;;;;;14.47;57.51;102613.22;3582499;39;20072;-62
2022/04/15 09:50:43;;;;;;;12.90;7.70;;;;;;;14.68;56.30;102610.41;3576453;39;20068;-63
2022/04/15 09:53:21;;;;;;;15.38;7.47;;;;;;;15.04;56.46;102605.81;3569956;39;20502;-62
2022/04/15 09:55:50;;;;;;;10.02;8.10;;;;;;;14.94;55.71;102563.94;3585076;40;20052;-63
2022/04/15 09:58:19;;;;;;;9.02;8.07;;;;;;;15.17;54.27;102602.47;3572985;39;20432;-62
2022/04/15 10:00:51;;;;;;;10.18;7.25;;;;;;;15.27;55.20;102598.31;3573866;39;20077;-62
2022/04/15 10:03:25;;;;;;;8.88;7.75;;;;;;;15.43;55.03;102604.66;3582913;39;20044;-62
2022/04/15 10:05:54;;;;;;;10.07;7.88;;;;;;;15.66;53.55;102611.53;3575992;39;20425;-63
2022/04/15 10:08:22;;;;;;;10.23;6.68;;;;;;;15.99;53.93;102608.84;3560342;40;20075;-62
2022/04/15 10:10:49;;;;;;;8.18;6.95;;;;;;;16.41;52.29;102607.34;3584845;39;20076;-63
2022/04/15 10:13:15;;;;;;;7.32;6.60;;;;;;;16.61;50.74;102602.56;3572346;39;20451;-62
2022/04/15 10:15:43;;;;;;;7.57;6.28;;;;;;;16.74;50.86;102608.16;3582487;39;20056;-63
2022/04/15 10:18:09;;;;;;;7.38;6.10;;;;;;;16.94;51.38;102603.31;3571541;39;20090;-62
2022/04/15 10:20:38;;;;;;;7.88;6.10;;;;;;;17.33;49.49;102596.41;3577641;39;20067;-63
2022/04/15 10:23:09;;;;;;;7.50;6.68;;;;;;;17.50;49.49;102559.13;3573510;39;20052;-63
2022/04/15 10:25:37;;;;;;;6.00;5.47;;;;;;;17.77;45.85;102595.47;3584447;39;20227;-63
2022/04/15 10:28:16;;;;;;;6.68;5.78;;;;;;;17.66;45.52;102597.09;3580973;39;20062;-62
2022/04/15 10:31:05;;;;;;;6.93;6.07;;;;;;;17.44;49.28;102593.00;3583176;39;20129;-62
2022/04/15 10:33:33;;;;;;;8.68;6.53;;;;;;;17.40;48.89;102595.03;3573934;39;20597;-62
2022/04/15 10:36:23;;;;;;;6.00;5.40;;;;;;;17.79;46.56;102588.09;3583280;39;20056;-62
2022/04/15 10:39:07;;;;;;;7.05;5.63;;;;;;;17.95;47.77;102581.66;3578322;39;20053;-62
2022/04/15 10:41:41;;;;;;;7.13;6.43;;;;;;;17.94;46.41;102582.63;3583722;39;20058;-62
2022/04/15 10:44:23;;;;;;;8.43;6.28;;;;;;;17.60;46.42;102552.13;3576205;39;20048;-61
2022/04/15 10:46:49;;;;;;;7.60;6.38;;;;;;;17.92;45.96;102584.56;3585397;39;20059;-62
2022/04/15 10:49:27;;;;;;;7.50;5.63;;;;;;;17.62;47.16;102578.25;3572199;39;20716;-62
2022/04/15 10:52:17;;;;;;;6.88;5.95;;;;;;;17.36;47.83;102582.63;3585674;39;20663;-62
2022/04/15 10:54:48;;;;;;;6.20;5.15;;;;;;;17.51;47.73;102575.34;3576444;39;20052;-63
2022/04/15 10:57:19;;;;;;;9.48;6.03;;;;;;;17.79;45.62;102579.94;3574493;39;20416;-62
2022/04/15 11:02:47;;;;;;;7.18;5.28;;;;;;;17.74;47.37;102578.44;3578267;39;20133;-62
2022/04/15 11:05:43;;;;;;;8.00;5.32;;;;;;;17.63;46.46;102573.69;3571973;39;20059;-62
2022/04/15 11:08:15;;;;;;;10.60;5.55;;;;;;;17.61;46.53;102575.66;3575681;39;20297;-62
2022/04/15 11:10:41;;;;;;;8.20;5.90;;;;;;;17.76;47.24;102577.38;3575488;39;20065;-62
2022/04/15 11:13:10;;;;;;;6.57;5.32;;;;;;;17.82;46.09;102573.41;3576631;39;20052;-62
2022/04/15 11:16:10;;;;;;;5.32;4.65;;;;;;;18.18;45.58;102575.59;3583198;39;20062;-63
2022/04/15 11:19:11;;;;;;;8.13;5.50;;;;;;;18.42;44.78;102567.63;3562690;40;20302;-62
2022/04/15 11:21:40;;;;;;;8.65;4.95;;;;;;;18.42;44.54;102577.63;3568893;40;20075;-63
2022/04/15 11:24:10;;;;;;;5.85;4.95;;;;;;;18.52;45.38;102581.47;3568581;39;20381;-63